Aviation Digital Data Service (ADDS)

Output produced by TAFs form (1848 UTC 29 July 2014)
found at http://aviationweather.gov/adds/tafs/
 
KLVS 291759Z 2918/3018 20011KT P6SM VCSH SCT015 BKN080 
     FM292000 21014KT P6SM VCTS SCT050CB BKN080 
     TEMPO 2920/2924 VRB15G25KT 5SM SHRA BKN030 
     FM300000 25015KT P6SM VCSH SCT060 BKN130 
     FM300200 VRB05KT P6SM FEW040 SCT100 BKN200